createdAt,value
2023-04-18T00:01:10.258Z,7.97
2023-04-18T00:03:38.215Z,7.87
2023-04-18T00:06:05.956Z,6.47
2023-04-18T00:08:35.431Z,5.47
2023-04-18T00:11:02.977Z,5.37
2023-04-18T00:13:30.525Z,5.90
2023-04-18T00:15:58.040Z,5.37
2023-04-18T00:18:25.587Z,6.07
2023-04-18T00:20:53.562Z,6.43
2023-04-18T00:23:21.160Z,6.43
2023-04-18T00:25:51.384Z,6.00
2023-04-18T00:28:19.057Z,5.47
2023-04-18T00:30:46.601Z,4.10
2023-04-18T00:33:14.168Z,5.93
2023-04-18T00:35:41.657Z,6.03
2023-04-18T00:38:09.212Z,7.67
2023-04-18T00:40:36.709Z,6.27
2023-04-18T00:43:04.331Z,5.17
2023-04-18T00:45:31.854Z,4.37
2023-04-18T00:47:59.427Z,6.77
2023-04-18T00:50:27.051Z,6.30
2023-04-18T00:52:55.228Z,6.07
2023-04-18T00:55:23.097Z,6.37
2023-04-18T00:57:53.376Z,6.07
2023-04-18T01:00:20.980Z,5.87
2023-04-18T01:02:48.540Z,6.67
2023-04-18T01:05:16.155Z,5.53
2023-04-18T01:07:43.683Z,7.90
2023-04-18T01:10:11.611Z,6.80
2023-04-18T01:12:39.121Z,5.43
2023-04-18T01:15:07.035Z,6.83
2023-04-18T01:17:34.651Z,7.60
2023-04-18T01:20:02.920Z,6.87
2023-04-18T01:22:31.489Z,7.40
2023-04-18T01:24:59.062Z,6.47
2023-04-18T01:27:26.552Z,5.27
2023-04-18T01:29:54.118Z,5.37
2023-04-18T01:32:23.173Z,7.10
2023-04-18T01:34:50.748Z,7.13
2023-04-18T01:37:18.325Z,5.97
2023-04-18T01:39:45.852Z,6.43
2023-04-18T01:42:13.371Z,6.67
2023-04-18T01:44:40.902Z,4.90
2023-04-18T01:47:08.372Z,6.93
2023-04-18T01:49:35.990Z,6.33
2023-04-18T01:52:03.479Z,5.50
2023-04-18T01:54:31.005Z,6.90
2023-04-18T01:56:58.498Z,6.37
2023-04-18T01:59:26.068Z,5.50
2023-04-18T02:01:53.625Z,6.67
2023-04-18T02:04:21.236Z,4.77
2023-04-18T02:06:48.729Z,5.13
2023-04-18T02:09:16.256Z,7.10
2023-04-18T02:11:43.811Z,5.57
2023-04-18T02:14:11.652Z,4.97
2023-04-18T02:16:39.515Z,6.23
2023-04-18T02:19:07.105Z,5.70
2023-04-18T02:21:34.605Z,5.43
2023-04-18T02:24:02.149Z,5.90
2023-04-18T02:26:29.650Z,7.00
2023-04-18T02:28:57.215Z,5.87
2023-04-18T02:31:24.784Z,6.17
2023-04-18T02:33:52.396Z,5.40
2023-04-18T02:36:19.938Z,6.00
2023-04-18T02:38:47.506Z,6.93
2023-04-18T02:41:15.091Z,6.57
2023-04-18T02:43:42.735Z,6.07
2023-04-18T02:46:10.304Z,6.00
2023-04-18T02:48:38.096Z,5.77
2023-04-18T02:51:06.467Z,5.13
2023-04-18T02:53:34.403Z,6.70
2023-04-18T02:56:01.968Z,6.00
2023-04-18T02:58:29.562Z,7.23
2023-04-18T03:00:57.334Z,6.03
2023-04-18T03:03:25.033Z,5.50
2023-04-18T03:05:52.604Z,7.23
2023-04-18T03:08:20.147Z,7.00
2023-04-18T03:10:47.685Z,5.77
2023-04-18T03:13:15.844Z,5.37
2023-04-18T03:15:43.562Z,6.23
2023-04-18T03:18:11.087Z,5.20
2023-04-18T03:20:38.744Z,4.53
2023-04-18T03:23:06.255Z,6.13
2023-04-18T03:25:33.762Z,5.03
2023-04-18T03:28:01.357Z,6.13
2023-04-18T03:30:28.876Z,5.13
2023-04-18T03:32:56.568Z,5.33
2023-04-18T03:35:24.165Z,4.63
2023-04-18T03:37:51.753Z,6.07
2023-04-18T03:40:19.309Z,6.33
2023-04-18T03:42:46.856Z,4.80
2023-04-18T03:45:14.368Z,5.43
2023-04-18T03:47:42.022Z,5.10
2023-04-18T03:50:09.765Z,4.90
2023-04-18T03:52:37.379Z,4.47
2023-04-18T03:55:05.128Z,5.00
2023-04-18T03:57:32.726Z,4.77
2023-04-18T04:00:00.203Z,5.07
2023-04-18T04:02:27.871Z,4.20
2023-04-18T04:04:55.461Z,5.30
2023-04-18T04:07:23.046Z,6.00
2023-04-18T04:09:50.597Z,5.77
2023-04-18T04:12:18.183Z,4.73
2023-04-18T04:14:45.676Z,3.10
2023-04-18T04:17:13.239Z,4.47
2023-04-18T04:19:40.751Z,4.17
2023-04-18T04:22:08.332Z,4.40
2023-04-18T04:24:36.159Z,5.00
2023-04-18T04:27:03.862Z,4.63
2023-04-18T04:29:31.606Z,5.07
2023-04-18T04:31:59.278Z,4.83
2023-04-18T04:34:26.955Z,5.43
2023-04-18T04:36:55.193Z,5.87
2023-04-18T04:39:22.754Z,5.73
2023-04-18T04:41:50.396Z,5.50
2023-04-18T04:44:18.038Z,5.27
2023-04-18T04:46:45.623Z,5.10
2023-04-18T04:49:13.133Z,4.77
2023-04-18T04:51:40.760Z,7.77
2023-04-18T04:54:08.274Z,6.93
2023-04-18T04:56:35.863Z,6.17
2023-04-18T04:59:03.369Z,4.30
2023-04-18T05:01:31.139Z,6.40
2023-04-18T05:03:58.857Z,6.00
2023-04-18T05:06:26.545Z,6.17
2023-04-18T05:08:54.096Z,5.53
2023-04-18T05:11:21.681Z,5.87
2023-04-18T05:13:50.052Z,6.70
2023-04-18T05:16:17.597Z,7.60
2023-04-18T05:18:45.107Z,7.40
2023-04-18T05:21:12.745Z,7.90
2023-04-18T05:23:40.462Z,6.30
2023-04-18T05:26:08.106Z,6.20
2023-04-18T05:28:35.677Z,6.83
2023-04-18T05:31:03.453Z,6.67
2023-04-18T05:33:31.892Z,5.63
2023-04-18T05:35:59.788Z,5.67
2023-04-18T05:38:27.317Z,6.73
2023-04-18T05:40:54.803Z,6.93
2023-04-18T05:43:22.489Z,7.17
2023-04-18T05:45:50.462Z,7.67
2023-04-18T05:48:20.844Z,7.83
2023-04-18T05:50:48.455Z,7.70
2023-04-18T05:53:18.058Z,7.80
2023-04-18T05:55:45.620Z,7.07
2023-04-18T05:58:13.199Z,6.87
2023-04-18T06:00:40.838Z,8.43
2023-04-18T06:03:10.677Z,7.73
2023-04-18T06:05:38.849Z,7.50
2023-04-18T06:08:06.458Z,7.93
2023-04-18T06:10:34.183Z,9.40
2023-04-18T06:13:01.770Z,9.10
2023-04-18T06:15:29.435Z,8.17
2023-04-18T06:17:57.027Z,7.57
2023-04-18T06:20:24.652Z,6.73
2023-04-18T06:22:52.170Z,8.80
2023-04-18T06:25:19.987Z,8.43
2023-04-18T06:27:47.465Z,8.93
2023-04-18T06:30:15.124Z,7.20
2023-04-18T06:32:42.712Z,8.90
2023-04-18T06:35:10.402Z,10.27
2023-04-18T06:37:38.015Z,9.03
2023-04-18T06:40:05.875Z,7.63
2023-04-18T06:42:33.385Z,7.00
2023-04-18T06:45:01.004Z,7.93
2023-04-18T06:47:28.698Z,8.23
2023-04-18T06:49:56.410Z,8.50
2023-04-18T06:52:23.934Z,7.97
2023-04-18T06:54:51.523Z,9.00
2023-04-18T06:57:19.094Z,7.47
2023-04-18T06:59:46.620Z,7.00
2023-04-18T07:02:14.195Z,7.97
2023-04-18T07:04:41.856Z,7.37
2023-04-18T07:07:09.525Z,8.80
2023-04-18T07:09:37.104Z,7.27
2023-04-18T07:12:04.636Z,8.30
2023-04-18T07:14:34.124Z,5.87
2023-04-18T07:17:02.117Z,6.90
2023-04-18T07:19:29.755Z,5.73
2023-04-18T07:21:57.444Z,6.97
2023-04-18T07:24:24.957Z,6.33
2023-04-18T07:26:54.783Z,6.77
2023-04-18T07:29:22.710Z,6.13
2023-04-18T07:31:50.344Z,6.37
2023-04-18T07:34:17.949Z,7.83
2023-04-18T07:36:45.568Z,5.27
2023-04-18T07:39:13.170Z,6.23
2023-04-18T07:41:40.690Z,6.77
2023-04-18T07:44:08.291Z,5.67
2023-04-18T07:46:35.964Z,7.23
2023-04-18T07:49:03.627Z,5.77
2023-04-18T07:51:31.226Z,7.23
2023-04-18T07:53:59.048Z,7.73
2023-04-18T07:56:27.128Z,7.30
2023-04-18T07:58:54.744Z,7.70
2023-04-18T08:01:22.291Z,6.80
2023-04-18T08:03:50.016Z,8.50
2023-04-18T08:06:17.748Z,8.13
2023-04-18T08:08:45.334Z,6.07
2023-04-18T08:11:12.995Z,6.43
2023-04-18T08:13:40.555Z,6.37
2023-04-18T08:16:08.163Z,7.10
2023-04-18T08:18:36.260Z,7.20
2023-04-18T08:21:03.872Z,6.53
2023-04-18T08:23:31.421Z,6.77
2023-04-18T08:25:59.042Z,6.77
2023-04-18T08:28:26.565Z,6.50
2023-04-18T08:30:54.123Z,6.07
2023-04-18T08:33:22.515Z,6.10
2023-04-18T08:35:50.092Z,7.27
2023-04-18T08:38:18.331Z,7.57
2023-04-18T08:40:46.308Z,7.37
2023-04-18T08:43:14.483Z,5.93
2023-04-18T08:45:42.736Z,5.93
2023-04-18T08:48:14.299Z,6.67
2023-04-18T08:50:42.262Z,6.67
2023-04-18T08:53:09.819Z,6.33
2023-04-18T08:55:37.868Z,7.10
2023-04-18T08:58:05.472Z,6.30
2023-04-18T09:00:33.381Z,8.10
2023-04-18T09:03:01.033Z,6.73
2023-04-18T09:05:28.767Z,7.03
2023-04-18T09:07:56.469Z,5.87
2023-04-18T09:10:34.059Z,6.10
2023-04-18T09:13:02.701Z,6.50
2023-04-18T09:15:30.545Z,6.27
2023-04-18T09:17:59.230Z,6.83
2023-04-18T09:20:29.635Z,6.43
2023-04-18T09:22:57.248Z,6.27
2023-04-18T09:25:47.875Z,7.50
2023-04-18T09:28:32.182Z,7.13
2023-04-18T09:31:07.386Z,5.43
2023-04-18T09:33:35.068Z,6.00
2023-04-18T09:36:19.073Z,7.60
2023-04-18T09:38:47.143Z,8.83
2023-04-18T09:41:15.253Z,9.37
2023-04-18T09:43:42.851Z,6.77
2023-04-18T09:46:10.456Z,8.67
2023-04-18T09:48:38.066Z,8.73
2023-04-18T09:51:09.833Z,8.80
2023-04-18T09:53:41.332Z,6.60
2023-04-18T09:56:12.386Z,6.80
2023-04-18T09:58:41.611Z,7.10
2023-04-18T10:01:09.332Z,7.10
2023-04-18T10:03:45.172Z,6.63
2023-04-18T10:06:15.550Z,8.47
2023-04-18T10:08:44.640Z,6.80
2023-04-18T10:11:12.339Z,6.80
2023-04-18T10:13:43.702Z,7.43
2023-04-18T10:16:11.432Z,6.17
2023-04-18T10:18:39.060Z,6.97
2023-04-18T10:21:06.691Z,6.43
2023-04-18T10:23:35.727Z,6.33
2023-04-18T10:26:07.521Z,8.13
2023-04-18T10:28:55.409Z,7.40
2023-04-18T10:31:24.279Z,7.23
2023-04-18T10:36:29.259Z,7.03
2023-04-18T10:39:00.585Z,7.07
2023-04-18T10:41:29.250Z,6.87
2023-04-18T10:44:15.798Z,7.33
2023-04-18T10:46:44.531Z,7.07
2023-04-18T10:49:15.533Z,7.40
2023-04-18T10:51:46.727Z,6.50
2023-04-18T10:54:19.507Z,7.10
2023-04-18T10:56:58.585Z,6.63
2023-04-18T10:59:27.031Z,8.47
2023-04-18T11:02:00.359Z,7.70
2023-04-18T11:04:29.094Z,7.77
2023-04-18T11:06:56.678Z,7.53
2023-04-18T11:09:24.599Z,7.27
2023-04-18T11:12:08.436Z,6.10
2023-04-18T11:14:42.629Z,8.40
2023-04-18T11:17:23.495Z,7.03
2023-04-18T11:19:52.059Z,7.93
2023-04-18T11:22:19.641Z,7.30
2023-04-18T11:24:47.258Z,7.67
2023-04-18T11:27:14.883Z,7.20
2023-04-18T11:29:42.538Z,7.40
2023-04-18T11:32:10.417Z,7.37
2023-04-18T11:34:37.937Z,8.63
2023-04-18T11:37:08.576Z,8.17
2023-04-18T11:39:41.389Z,9.03
2023-04-18T11:42:09.540Z,7.23
2023-04-18T11:44:37.076Z,9.40
2023-04-18T11:47:04.650Z,6.27
2023-04-18T11:49:32.806Z,7.50
2023-04-18T11:52:00.456Z,7.83
2023-04-18T11:54:37.229Z,9.03
2023-04-18T11:57:05.104Z,7.47
2023-04-18T11:59:32.920Z,6.93
2023-04-18T12:02:15.353Z,8.53
2023-04-18T12:05:00.480Z,8.00
2023-04-18T12:07:35.408Z,9.43
2023-04-18T12:10:03.959Z,7.60
2023-04-18T12:12:31.542Z,7.10
2023-04-18T12:14:59.989Z,7.93
2023-04-18T12:17:28.320Z,7.83
2023-04-18T12:19:56.066Z,7.67
2023-04-18T12:22:42.010Z,7.40
2023-04-18T12:25:17.098Z,9.33
2023-04-18T12:27:53.668Z,8.60
2023-04-18T12:30:22.084Z,7.30
2023-04-18T12:32:50.785Z,7.67
2023-04-18T12:35:18.920Z,9.50
2023-04-18T12:37:47.057Z,7.03
2023-04-18T12:40:15.058Z,7.93
2023-04-18T12:42:42.680Z,8.77
2023-04-18T12:45:10.834Z,9.13
2023-04-18T12:47:41.745Z,9.30
2023-04-18T12:50:11.310Z,8.43
2023-04-18T12:52:40.223Z,9.73
2023-04-18T12:55:09.980Z,8.80
2023-04-18T12:57:37.559Z,8.73
2023-04-18T13:00:06.129Z,7.27
2023-04-18T13:02:33.791Z,8.30
2023-04-18T13:05:01.461Z,9.40
2023-04-18T13:07:29.041Z,9.17
2023-04-18T13:09:56.619Z,8.70
2023-04-18T13:12:24.176Z,8.73
2023-04-18T13:14:51.696Z,11.57
2023-04-18T13:17:19.613Z,8.10
2023-04-18T13:19:50.310Z,9.23
2023-04-18T13:22:21.098Z,7.77
2023-04-18T13:24:48.848Z,8.30
2023-04-18T13:27:16.512Z,9.10
2023-04-18T13:29:44.251Z,7.87
2023-04-18T13:32:12.116Z,8.43
2023-04-18T13:34:43.963Z,9.43
2023-04-18T13:37:11.535Z,8.43
2023-04-18T13:39:39.248Z,8.33
2023-04-18T13:42:06.853Z,7.70
2023-04-18T13:44:34.982Z,8.87
2023-04-18T13:47:03.198Z,9.57
2023-04-18T13:49:30.699Z,7.90
2023-04-18T13:51:58.336Z,9.53
2023-04-18T13:54:26.541Z,10.20
2023-04-18T13:56:54.816Z,9.27
2023-04-18T13:59:22.353Z,9.87
2023-04-18T14:01:50.021Z,10.20
2023-04-18T14:04:18.003Z,10.23
2023-04-18T14:06:47.350Z,10.10
2023-04-18T14:09:16.531Z,9.60
2023-04-18T14:11:44.231Z,8.07
2023-04-18T14:14:11.852Z,9.07
2023-04-18T14:16:39.458Z,8.13
2023-04-18T14:19:07.097Z,8.47
2023-04-18T14:21:34.685Z,10.60
2023-04-18T14:24:02.301Z,9.13
2023-04-18T14:26:30.022Z,9.50
2023-04-18T14:28:57.664Z,9.27
2023-04-18T14:31:25.303Z,7.43
2023-04-18T14:33:52.897Z,7.90
2023-04-18T14:36:20.410Z,10.43
2023-04-18T14:38:48.188Z,8.97
2023-04-18T14:41:15.701Z,10.27
2023-04-18T14:43:43.254Z,8.47
2023-04-18T14:46:14.268Z,8.50
2023-04-18T14:48:41.921Z,8.07
2023-04-18T14:51:09.486Z,9.03
2023-04-18T14:53:37.085Z,7.13
2023-04-18T14:56:04.705Z,7.13
2023-04-18T14:58:32.581Z,9.83
2023-04-18T15:01:00.143Z,9.00
2023-04-18T15:03:27.976Z,10.43
2023-04-18T15:05:56.759Z,9.33
2023-04-18T15:08:24.335Z,9.10
2023-04-18T15:10:51.881Z,8.73
2023-04-18T15:13:20.215Z,9.13
2023-04-18T15:15:54.258Z,9.53
2023-04-18T15:18:22.033Z,7.27
2023-04-18T15:20:49.576Z,7.47
2023-04-18T15:23:19.882Z,7.07
2023-04-18T15:25:47.524Z,9.57
2023-04-18T15:28:15.097Z,8.77
2023-04-18T15:30:42.704Z,7.83
2023-04-18T15:33:10.938Z,9.00
2023-04-18T15:35:38.562Z,9.13
2023-04-18T15:38:06.124Z,9.13
2023-04-18T15:40:33.685Z,7.50
2023-04-18T15:43:01.228Z,8.03
2023-04-18T15:45:28.827Z,8.93
2023-04-18T15:47:56.526Z,7.97
2023-04-18T15:50:24.283Z,7.07
2023-04-18T15:52:51.854Z,8.23
2023-04-18T15:55:19.470Z,6.80
2023-04-18T15:57:47.073Z,8.27
2023-04-18T16:00:14.918Z,8.53
2023-04-18T16:02:45.860Z,8.27
2023-04-18T16:05:14.013Z,9.50
2023-04-18T16:07:42.215Z,9.63
2023-04-18T16:10:10.487Z,7.63
2023-04-18T16:12:39.218Z,8.83
2023-04-18T16:15:07.948Z,7.80
2023-04-18T16:17:36.066Z,9.73
2023-04-18T16:20:04.081Z,9.20
2023-04-18T16:22:31.759Z,9.83
2023-04-18T16:25:00.732Z,8.00
2023-04-18T16:27:28.389Z,9.80
2023-04-18T16:29:56.039Z,7.53
2023-04-18T16:32:23.619Z,9.77
2023-04-18T16:34:51.399Z,8.27
2023-04-18T16:37:18.964Z,8.70
2023-04-18T16:39:46.574Z,10.03
2023-04-18T16:42:15.642Z,7.50
2023-04-18T16:44:43.633Z,10.47
2023-04-18T16:47:11.222Z,10.07
2023-04-18T16:49:38.806Z,9.10
2023-04-18T16:52:06.384Z,8.90
2023-04-18T16:54:33.952Z,7.80
2023-04-18T16:57:01.465Z,9.60
2023-04-18T16:59:29.108Z,7.70
2023-04-18T17:01:56.715Z,8.73
2023-04-18T17:04:24.426Z,10.37
2023-04-18T17:06:52.250Z,9.43
2023-04-18T17:09:19.877Z,7.03
2023-04-18T17:11:47.397Z,8.57
2023-04-18T17:14:15.213Z,9.23
2023-04-18T17:16:43.122Z,10.30
2023-04-18T17:19:10.946Z,10.40
2023-04-18T17:21:38.597Z,9.67
2023-04-18T17:24:06.339Z,10.33
2023-04-18T17:26:34.698Z,9.40
2023-04-18T17:29:02.370Z,10.03
2023-04-18T17:31:30.172Z,11.23
2023-04-18T17:33:58.088Z,10.20
2023-04-18T17:36:25.644Z,10.30
2023-04-18T17:38:53.303Z,8.00
2023-04-18T17:41:21.505Z,10.87
2023-04-18T17:43:49.339Z,9.07
2023-04-18T17:46:17.159Z,8.80
2023-04-18T17:48:44.951Z,8.27
2023-04-18T17:51:12.574Z,10.07
2023-04-18T17:53:40.207Z,9.97
2023-04-18T17:56:07.722Z,9.23
2023-04-18T17:58:35.454Z,9.50
2023-04-18T18:01:03.245Z,8.07
2023-04-18T18:03:31.092Z,9.00
2023-04-18T18:05:58.810Z,8.70
2023-04-18T18:08:26.397Z,9.63
2023-04-18T18:10:53.942Z,9.33
2023-04-18T18:13:21.526Z,9.83
2023-04-18T18:15:49.124Z,9.20
2023-04-18T18:18:17.050Z,10.50
2023-04-18T18:20:44.669Z,9.40
2023-04-18T18:23:12.234Z,8.83
2023-04-18T18:25:39.732Z,9.23
2023-04-18T18:28:07.426Z,11.07
2023-04-18T18:30:35.101Z,10.70
2023-04-18T18:33:02.669Z,9.47
2023-04-18T18:35:30.244Z,10.50
2023-04-18T18:37:57.885Z,10.70
2023-04-18T18:40:25.423Z,8.70
2023-04-18T18:42:52.976Z,10.10
2023-04-18T18:45:20.614Z,8.20
2023-04-18T18:47:48.824Z,10.83
2023-04-18T18:50:16.470Z,12.03
2023-04-18T18:52:44.054Z,10.00
2023-04-18T18:55:11.642Z,10.67
2023-04-18T18:57:39.201Z,8.40
2023-04-18T19:00:07.945Z,8.90
2023-04-18T19:02:35.735Z,10.10
2023-04-18T19:05:03.921Z,8.70
2023-04-18T19:07:31.549Z,8.03
2023-04-18T19:09:59.065Z,9.97
2023-04-18T19:12:26.649Z,9.37
2023-04-18T19:14:54.170Z,10.03
2023-04-18T19:17:21.752Z,12.77
2023-04-18T19:19:49.302Z,8.87
2023-04-18T19:22:16.941Z,13.83
2023-04-18T19:24:44.475Z,9.30
2023-04-18T19:27:12.037Z,12.13
2023-04-18T19:29:39.883Z,9.90
2023-04-18T19:32:07.638Z,11.40
2023-04-18T19:34:38.358Z,9.20
2023-04-18T19:37:05.954Z,9.80
2023-04-18T19:39:33.492Z,10.23
2023-04-18T19:42:01.115Z,9.73
2023-04-18T19:44:28.626Z,10.07
2023-04-18T19:46:56.202Z,10.20
2023-04-18T19:49:23.753Z,8.17
2023-04-18T19:51:51.298Z,9.60
2023-04-18T19:54:20.999Z,10.33
2023-04-18T19:56:49.601Z,9.60
2023-04-18T19:59:17.182Z,8.50
2023-04-18T20:01:44.897Z,9.43
2023-04-18T20:04:12.870Z,10.97
2023-04-18T20:06:40.573Z,8.67
2023-04-18T20:09:08.123Z,9.63
2023-04-18T20:11:35.681Z,8.50
2023-04-18T20:14:03.221Z,11.47
2023-04-18T20:16:30.821Z,9.93
2023-04-18T20:18:58.383Z,9.43
2023-04-18T20:21:25.989Z,8.80
2023-04-18T20:23:53.684Z,9.47
2023-04-18T20:26:22.288Z,10.53
2023-04-18T20:28:49.811Z,9.67
2023-04-18T20:31:17.398Z,10.80
2023-04-18T20:33:44.938Z,9.53
2023-04-18T20:36:12.555Z,9.43
2023-04-18T20:38:40.116Z,8.53
2023-04-18T20:41:07.740Z,10.53
2023-04-18T20:43:35.257Z,8.80
2023-04-18T20:46:02.823Z,9.90
2023-04-18T20:48:30.371Z,11.17
2023-04-18T20:50:58.025Z,9.80
2023-04-18T20:53:25.607Z,8.43
2023-04-18T20:55:53.195Z,12.90
2023-04-18T20:58:20.746Z,9.67
2023-04-18T21:00:48.360Z,9.07
2023-04-18T21:03:16.773Z,10.00
2023-04-18T21:05:45.022Z,8.87
2023-04-18T21:08:12.789Z,11.97
2023-04-18T21:10:40.343Z,12.13
2023-04-18T21:13:07.878Z,8.30
2023-04-18T21:15:36.694Z,9.50
2023-04-18T21:18:04.325Z,8.33
2023-04-18T21:20:31.993Z,8.73
2023-04-18T21:22:59.495Z,9.77
2023-04-18T21:25:27.138Z,11.03
2023-04-18T21:27:54.690Z,9.70
2023-04-18T21:30:22.307Z,10.47
2023-04-18T21:32:49.836Z,9.03
2023-04-18T21:35:19.380Z,9.07
2023-04-18T21:37:47.800Z,8.93
2023-04-18T21:40:15.373Z,9.07
2023-04-18T21:42:42.991Z,9.47
2023-04-18T21:45:11.988Z,8.77
2023-04-18T21:47:40.559Z,8.73
2023-04-18T21:50:08.684Z,8.73
2023-04-18T21:52:40.006Z,9.00
2023-04-18T21:55:10.269Z,8.53
2023-04-18T21:57:38.451Z,9.80
2023-04-18T22:00:09.244Z,10.63
2023-04-18T22:02:40.088Z,11.03
2023-04-18T22:05:09.259Z,11.37
2023-04-18T22:07:50.162Z,10.37
2023-04-18T22:10:23.845Z,10.87
2023-04-18T22:12:52.100Z,10.00
2023-04-18T22:15:20.868Z,9.27
2023-04-18T22:17:49.102Z,10.83
2023-04-18T22:20:17.145Z,10.77
2023-04-18T22:22:45.093Z,9.27
2023-04-18T22:25:13.239Z,8.60
2023-04-18T22:27:41.066Z,9.23
2023-04-18T22:30:08.948Z,10.97
2023-04-18T22:32:36.483Z,7.87
2023-04-18T22:35:04.453Z,9.57
2023-04-18T22:37:31.964Z,11.27
2023-04-18T22:39:59.505Z,8.93
2023-04-18T22:42:27.025Z,9.23
2023-04-18T22:44:54.592Z,10.50
2023-04-18T22:47:22.129Z,8.63
2023-04-18T22:49:49.854Z,9.17
2023-04-18T22:52:17.389Z,10.83
2023-04-18T22:54:44.933Z,10.70
2023-04-18T22:57:12.457Z,10.30
2023-04-18T22:59:39.991Z,10.53
2023-04-18T23:02:07.585Z,11.37
2023-04-18T23:04:35.376Z,9.03
2023-04-18T23:07:03.168Z,9.67
2023-04-18T23:09:31.470Z,10.63
2023-04-18T23:11:59.080Z,10.10
2023-04-18T23:14:26.744Z,8.50
2023-04-18T23:16:54.290Z,9.53
2023-04-18T23:19:21.963Z,9.07
2023-04-18T23:21:49.796Z,9.87
2023-04-18T23:24:17.462Z,12.33
2023-04-18T23:26:45.095Z,11.73
2023-04-18T23:29:12.642Z,8.20
2023-04-18T23:31:40.197Z,8.67
2023-04-18T23:34:07.801Z,10.87
2023-04-18T23:36:35.280Z,10.23
2023-04-18T23:39:02.851Z,11.63
2023-04-18T23:41:30.378Z,10.57
2023-04-18T23:43:58.005Z,12.37
2023-04-18T23:46:35.724Z,12.07
2023-04-18T23:49:06.222Z,8.80
2023-04-18T23:51:33.768Z,9.47
2023-04-18T23:54:01.326Z,11.27
2023-04-18T23:56:29.596Z,9.07
2023-04-18T23:58:57.548Z,9.13
